sensor_id;sensor_type;location;lat;lon;timestamp;pressure;altitude;pressure_sealevel;temperature;humidity
54850;BME280;47660;51.334;12.396;2023-11-19T00:00:47;100053.59;;;22.20;34.50
54850;BME280;47660;51.334;12.396;2023-11-19T00:03:12;100045.00;;;21.70;35.38
54850;BME280;47660;51.334;12.396;2023-11-19T00:05:38;100040.81;;;21.90;34.82
54850;BME280;47660;51.334;12.396;2023-11-19T00:08:04;100035.81;;;22.02;34.69
54850;BME280;47660;51.334;12.396;2023-11-19T00:10:31;100040.94;;;20.77;36.25
54850;BME280;47660;51.334;12.396;2023-11-19T00:12:56;100045.00;;;21.21;36.56
54850;BME280;47660;51.334;12.396;2023-11-19T00:15:22;100029.53;;;21.47;35.99
54850;BME280;47660;51.334;12.396;2023-11-19T00:17:49;100038.88;;;21.36;36.91
54850;BME280;47660;51.334;12.396;2023-11-19T00:20:16;100037.38;;;21.33;37.57
54850;BME280;47660;51.334;12.396;2023-11-19T00:22:42;100020.63;;;22.01;36.21
54850;BME280;47660;51.334;12.396;2023-11-19T00:25:08;100020.31;;;21.73;36.87
54850;BME280;47660;51.334;12.396;2023-11-19T00:27:33;100001.63;;;21.55;36.54
54850;BME280;47660;51.334;12.396;2023-11-19T00:29:59;99999.84;;;22.17;35.66
54850;BME280;47660;51.334;12.396;2023-11-19T00:32:24;99991.25;;;21.90;36.25
54850;BME280;47660;51.334;12.396;2023-11-19T00:34:50;99994.75;;;20.31;39.03
54850;BME280;47660;51.334;12.396;2023-11-19T00:37:15;99987.53;;;21.36;37.12
54850;BME280;47660;51.334;12.396;2023-11-19T00:39:41;99973.28;;;21.74;37.20
54850;BME280;47660;51.334;12.396;2023-11-19T00:42:07;99971.97;;;20.25;39.32
54850;BME280;47660;51.334;12.396;2023-11-19T00:44:32;99966.47;;;21.23;37.77
54850;BME280;47660;51.334;12.396;2023-11-19T00:46:57;99949.00;;;20.46;38.87
54850;BME280;47660;51.334;12.396;2023-11-19T00:49:23;99956.63;;;20.17;39.30
54850;BME280;47660;51.334;12.396;2023-11-19T00:51:48;99940.69;;;21.12;37.44
54850;BME280;47660;51.334;12.396;2023-11-19T00:54:14;99935.97;;;20.58;38.28
54850;BME280;47660;51.334;12.396;2023-11-19T00:56:39;99919.19;;;20.87;37.91
54850;BME280;47660;51.334;12.396;2023-11-19T00:59:05;99917.19;;;20.00;39.23
54850;BME280;47660;51.334;12.396;2023-11-19T01:01:30;99910.44;;;20.04;39.79
54850;BME280;47660;51.334;12.396;2023-11-19T01:03:55;99908.81;;;20.59;38.90
54850;BME280;47660;51.334;12.396;2023-11-19T01:06:32;99897.56;;;21.19;38.27
54850;BME280;47660;51.334;12.396;2023-11-19T01:08:57;99892.19;;;20.23;39.75
54850;BME280;47660;51.334;12.396;2023-11-19T01:11:24;99887.63;;;20.88;38.95
54850;BME280;47660;51.334;12.396;2023-11-19T01:13:50;99892.00;;;20.32;39.53
54850;BME280;47660;51.334;12.396;2023-11-19T01:16:16;99891.38;;;20.70;38.30
54850;BME280;47660;51.334;12.396;2023-11-19T01:18:41;99877.41;;;21.76;36.47
54850;BME280;47660;51.334;12.396;2023-11-19T01:21:06;99858.06;;;20.46;38.36
54850;BME280;47660;51.334;12.396;2023-11-19T01:23:32;99861.59;;;20.95;37.49
54850;BME280;47660;51.334;12.396;2023-11-19T01:25:58;99841.69;;;21.66;36.89
54850;BME280;47660;51.334;12.396;2023-11-19T01:28:23;99839.00;;;21.81;36.26
54850;BME280;47660;51.334;12.396;2023-11-19T01:30:50;99818.00;;;23.10;35.09
54850;BME280;47660;51.334;12.396;2023-11-19T01:33:16;99814.38;;;21.76;36.69
54850;BME280;47660;51.334;12.396;2023-11-19T01:35:41;99817.47;;;21.03;37.52
54850;BME280;47660;51.334;12.396;2023-11-19T01:38:07;99809.16;;;21.89;35.49
54850;BME280;47660;51.334;12.396;2023-11-19T01:40:33;99802.16;;;21.95;35.38
54850;BME280;47660;51.334;12.396;2023-11-19T01:42:59;99799.03;;;20.75;37.21
54850;BME280;47660;51.334;12.396;2023-11-19T01:45:28;99794.09;;;21.33;37.07
54850;BME280;47660;51.334;12.396;2023-11-19T01:47:54;99784.69;;;20.83;38.03
54850;BME280;47660;51.334;12.396;2023-11-19T01:50:21;99784.38;;;19.81;39.59
54850;BME280;47660;51.334;12.396;2023-11-19T01:52:47;99774.53;;;20.85;38.33
54850;BME280;47660;51.334;12.396;2023-11-19T01:55:13;99770.69;;;22.39;35.97
54850;BME280;47660;51.334;12.396;2023-11-19T01:57:39;99778.44;;;21.44;36.81
54850;BME280;47660;51.334;12.396;2023-11-19T02:00:07;99772.94;;;22.35;35.93
54850;BME280;47660;51.334;12.396;2023-11-19T02:02:36;99781.78;;;20.84;37.65
54850;BME280;47660;51.334;12.396;2023-11-19T02:05:02;99779.38;;;21.36;36.53
54850;BME280;47660;51.334;12.396;2023-11-19T02:07:27;99763.63;;;19.98;39.12
54850;BME280;47660;51.334;12.396;2023-11-19T02:09:53;99764.34;;;19.67;39.96
54850;BME280;47660;51.334;12.396;2023-11-19T02:12:18;99742.50;;;20.10;39.88
54850;BME280;47660;51.334;12.396;2023-11-19T02:14:45;99726.69;;;19.18;42.33
54850;BME280;47660;51.334;12.396;2023-11-19T02:17:27;99677.06;;;35.91;21.59
54850;BME280;47660;51.334;12.396;2023-11-19T02:19:53;99680.88;;;32.37;23.33
54850;BME280;47660;51.334;12.396;2023-11-19T02:22:18;99713.97;;;28.65;27.66
54850;BME280;47660;51.334;12.396;2023-11-19T02:24:44;99695.97;;;27.52;29.52
54850;BME280;47660;51.334;12.396;2023-11-19T02:27:16;99692.44;;;27.45;29.95
54850;BME280;47660;51.334;12.396;2023-11-19T02:29:45;99684.19;;;28.87;27.63
54850;BME280;47660;51.334;12.396;2023-11-19T02:32:11;99674.97;;;26.77;29.38
54850;BME280;47660;51.334;12.396;2023-11-19T02:34:38;99665.16;;;28.50;27.44
54850;BME280;47660;51.334;12.396;2023-11-19T02:37:03;99663.94;;;26.65;29.21
54850;BME280;47660;51.334;12.396;2023-11-19T02:39:30;99664.59;;;26.60;29.54
54850;BME280;47660;51.334;12.396;2023-11-19T02:41:56;99664.44;;;26.87;29.57
54850;BME280;47660;51.334;12.396;2023-11-19T02:44:21;99648.31;;;26.08;30.61
54850;BME280;47660;51.334;12.396;2023-11-19T02:46:47;99635.03;;;26.32;30.38
54850;BME280;47660;51.334;12.396;2023-11-19T02:49:14;99624.03;;;27.03;29.21
54850;BME280;47660;51.334;12.396;2023-11-19T02:51:39;99623.03;;;26.01;30.35
54850;BME280;47660;51.334;12.396;2023-11-19T02:54:04;99607.53;;;26.65;29.55
54850;BME280;47660;51.334;12.396;2023-11-19T02:56:29;99597.00;;;26.05;30.00
54850;BME280;47660;51.334;12.396;2023-11-19T02:58:59;99597.13;;;27.06;29.09
54850;BME280;47660;51.334;12.396;2023-11-19T03:01:25;99596.72;;;27.65;28.51
54850;BME280;47660;51.334;12.396;2023-11-19T03:03:58;99584.19;;;29.03;27.55
54850;BME280;47660;51.334;12.396;2023-11-19T03:06:24;99576.34;;;27.68;28.41
54850;BME280;47660;51.334;12.396;2023-11-19T03:08:49;99576.75;;;26.33;29.63
54850;BME280;47660;51.334;12.396;2023-11-19T03:11:15;99579.69;;;27.51;28.62
54850;BME280;47660;51.334;12.396;2023-11-19T03:13:40;99579.69;;;26.63;29.39
54850;BME280;47660;51.334;12.396;2023-11-19T03:16:07;99558.03;;;28.17;28.53
54850;BME280;47660;51.334;12.396;2023-11-19T03:18:32;99559.97;;;27.49;28.62
54850;BME280;47660;51.334;12.396;2023-11-19T03:20:58;99562.38;;;26.51;29.63
54850;BME280;47660;51.334;12.396;2023-11-19T03:23:23;99568.63;;;25.87;30.66
54850;BME280;47660;51.334;12.396;2023-11-19T03:25:49;99556.22;;;26.30;30.21
54850;BME280;47660;51.334;12.396;2023-11-19T03:28:14;99552.28;;;26.51;30.03
54850;BME280;47660;51.334;12.396;2023-11-19T03:30:40;99545.59;;;28.69;27.60
54850;BME280;47660;51.334;12.396;2023-11-19T03:33:05;99533.72;;;30.05;26.86
54850;BME280;47660;51.334;12.396;2023-11-19T03:35:30;99538.97;;;29.13;27.39
54850;BME280;47660;51.334;12.396;2023-11-19T03:37:55;99555.63;;;26.79;30.28
54850;BME280;47660;51.334;12.396;2023-11-19T03:40:21;99553.50;;;27.25;29.79
54850;BME280;47660;51.334;12.396;2023-11-19T03:42:46;99559.06;;;27.18;30.14
54850;BME280;47660;51.334;12.396;2023-11-19T03:45:12;99561.78;;;27.18;30.15
54850;BME280;47660;51.334;12.396;2023-11-19T03:47:37;99545.59;;;28.03;29.26
54850;BME280;47660;51.334;12.396;2023-11-19T03:50:03;99543.38;;;27.81;29.30
54850;BME280;47660;51.334;12.396;2023-11-19T03:52:28;99535.97;;;28.43;28.79
54850;BME280;47660;51.334;12.396;2023-11-19T03:54:55;99537.13;;;27.93;29.42
54850;BME280;47660;51.334;12.396;2023-11-19T03:57:21;99530.78;;;27.12;30.85
54850;BME280;47660;51.334;12.396;2023-11-19T03:59:46;99530.00;;;26.36;30.82
54850;BME280;47660;51.334;12.396;2023-11-19T04:02:11;99512.72;;;36.42;31.72
54850;BME280;47660;51.334;12.396;2023-11-19T04:04:37;99501.78;;;34.29;22.72
54850;BME280;47660;51.334;12.396;2023-11-19T04:07:04;99500.72;;;33.30;24.37
54850;BME280;47660;51.334;12.396;2023-11-19T04:09:30;99496.81;;;34.36;22.93
54850;BME280;47660;51.334;12.396;2023-11-19T04:11:56;99503.44;;;33.94;24.32
54850;BME280;47660;51.334;12.396;2023-11-19T04:14:21;99510.59;;;31.25;26.30
54850;BME280;47660;51.334;12.396;2023-11-19T04:16:46;99494.03;;;34.52;22.70
54850;BME280;47660;51.334;12.396;2023-11-19T04:19:12;99493.34;;;32.40;24.60
54850;BME280;47660;51.334;12.396;2023-11-19T04:21:40;99486.78;;;34.92;23.35
54850;BME280;47660;51.334;12.396;2023-11-19T04:24:06;99492.88;;;32.96;24.69
54850;BME280;47660;51.334;12.396;2023-11-19T04:26:32;99488.09;;;32.38;24.85
54850;BME280;47660;51.334;12.396;2023-11-19T04:28:57;99485.69;;;31.82;25.35
54850;BME280;47660;51.334;12.396;2023-11-19T04:31:23;99484.75;;;32.31;24.85
54850;BME280;47660;51.334;12.396;2023-11-19T04:33:48;99482.00;;;33.32;23.67
54850;BME280;47660;51.334;12.396;2023-11-19T04:36:18;99464.13;;;37.52;21.19
54850;BME280;47660;51.334;12.396;2023-11-19T04:38:44;99465.09;;;34.49;23.01
54850;BME280;47660;51.334;12.396;2023-11-19T04:41:09;99462.34;;;35.31;21.99
54850;BME280;47660;51.334;12.396;2023-11-19T04:43:34;99460.59;;;36.25;21.07
54850;BME280;47660;51.334;12.396;2023-11-19T04:46:00;99447.97;;;36.43;21.34
54850;BME280;47660;51.334;12.396;2023-11-19T04:48:25;99455.13;;;33.60;23.52
54850;BME280;47660;51.334;12.396;2023-11-19T04:50:51;99461.81;;;34.16;23.21
54850;BME280;47660;51.334;12.396;2023-11-19T04:53:17;99453.66;;;33.32;23.98
54850;BME280;47660;51.334;12.396;2023-11-19T04:55:43;99438.44;;;31.58;25.41
54850;BME280;47660;51.334;12.396;2023-11-19T04:58:08;99431.91;;;31.91;25.46
54850;BME280;47660;51.334;12.396;2023-11-19T05:00:34;99435.16;;;33.12;24.06
54850;BME280;47660;51.334;12.396;2023-11-19T05:02:59;99427.78;;;32.69;24.49
54850;BME280;47660;51.334;12.396;2023-11-19T05:05:25;99432.50;;;33.48;23.83
54850;BME280;47660;51.334;12.396;2023-11-19T05:07:50;99434.09;;;31.62;25.74
54850;BME280;47660;51.334;12.396;2023-11-19T05:10:15;99409.28;;;31.24;26.00
54850;BME280;47660;51.334;12.396;2023-11-19T05:12:41;99408.22;;;32.18;25.76
54850;BME280;47660;51.334;12.396;2023-11-19T05:15:06;99397.91;;;32.40;24.84
54850;BME280;47660;51.334;12.396;2023-11-19T05:17:33;99406.28;;;32.18;26.20
54850;BME280;47660;51.334;12.396;2023-11-19T05:19:58;99417.97;;;31.70;25.57
54850;BME280;47660;51.334;12.396;2023-11-19T05:22:23;99420.09;;;30.69;26.87
54850;BME280;47660;51.334;12.396;2023-11-19T05:24:49;99411.63;;;31.37;26.16
54850;BME280;47660;51.334;12.396;2023-11-19T05:27:14;99397.88;;;31.65;25.95
54850;BME280;47660;51.334;12.396;2023-11-19T05:29:39;99380.31;;;32.89;24.60
54850;BME280;47660;51.334;12.396;2023-11-19T05:32:06;99392.69;;;32.01;25.74
54850;BME280;47660;51.334;12.396;2023-11-19T05:34:32;99402.47;;;31.09;26.69
54850;BME280;47660;51.334;12.396;2023-11-19T05:36:57;99403.63;;;31.96;25.47
54850;BME280;47660;51.334;12.396;2023-11-19T05:39:23;99411.56;;;32.73;25.24
54850;BME280;47660;51.334;12.396;2023-11-19T05:41:49;99413.09;;;32.48;24.92
54850;BME280;47660;51.334;12.396;2023-11-19T05:44:15;99413.28;;;34.00;23.58
54850;BME280;47660;51.334;12.396;2023-11-19T05:46:40;99426.47;;;34.44;22.84
54850;BME280;47660;51.334;12.396;2023-11-19T05:49:08;99423.31;;;35.48;22.19
54850;BME280;47660;51.334;12.396;2023-11-19T05:51:37;99417.34;;;36.34;21.98
54850;BME280;47660;51.334;12.396;2023-11-19T05:54:02;99410.09;;;33.18;24.12
54850;BME280;47660;51.334;12.396;2023-11-19T05:56:27;99390.78;;;32.98;24.26
54850;BME280;47660;51.334;12.396;2023-11-19T05:58:57;99374.03;;;34.55;22.84
54850;BME280;47660;51.334;12.396;2023-11-19T06:01:23;99366.38;;;33.89;23.21
54850;BME280;47660;51.334;12.396;2023-11-19T06:03:48;99360.09;;;35.36;22.14
54850;BME280;47660;51.334;12.396;2023-11-19T06:06:15;99370.25;;;35.80;21.87
54850;BME280;47660;51.334;12.396;2023-11-19T06:08:40;99375.16;;;34.33;23.03
54850;BME280;47660;51.334;12.396;2023-11-19T06:11:05;99373.72;;;35.17;22.23
54850;BME280;47660;51.334;12.396;2023-11-19T06:13:31;99384.84;;;33.63;23.65
54850;BME280;47660;51.334;12.396;2023-11-19T06:15:56;99391.69;;;35.64;21.59
54850;BME280;47660;51.334;12.396;2023-11-19T06:18:21;99399.41;;;34.36;22.80
54850;BME280;47660;51.334;12.396;2023-11-19T06:20:48;99401.03;;;34.63;22.80
54850;BME280;47660;51.334;12.396;2023-11-19T06:23:14;99385.81;;;34.71;22.66
54850;BME280;47660;51.334;12.396;2023-11-19T06:25:40;99391.44;;;34.29;22.95
54850;BME280;47660;51.334;12.396;2023-11-19T06:28:05;99398.91;;;33.51;23.68
54850;BME280;47660;51.334;12.396;2023-11-19T06:30:30;99398.47;;;35.37;21.76
54850;BME280;47660;51.334;12.396;2023-11-19T06:32:57;99399.44;;;35.12;22.34
54850;BME280;47660;51.334;12.396;2023-11-19T06:35:22;99390.34;;;34.25;23.13
54850;BME280;47660;51.334;12.396;2023-11-19T06:37:48;99402.84;;;34.99;22.49
54850;BME280;47660;51.334;12.396;2023-11-19T06:40:13;99394.28;;;34.90;22.64
54850;BME280;47660;51.334;12.396;2023-11-19T06:42:40;99393.84;;;34.67;22.90
54850;BME280;47660;51.334;12.396;2023-11-19T06:45:06;99387.50;;;36.02;22.15
54850;BME280;47660;51.334;12.396;2023-11-19T06:47:32;99385.06;;;34.39;22.97
54850;BME280;47660;51.334;12.396;2023-11-19T06:49:58;99375.50;;;34.92;23.64
54850;BME280;47660;51.334;12.396;2023-11-19T06:52:23;99384.31;;;33.87;23.54
54850;BME280;47660;51.334;12.396;2023-11-19T06:54:49;99388.91;;;31.75;25.99
54850;BME280;47660;51.334;12.396;2023-11-19T06:57:14;99377.97;;;33.50;24.04
54850;BME280;47660;51.334;12.396;2023-11-19T06:59:40;99364.44;;;35.02;23.18
54850;BME280;47660;51.334;12.396;2023-11-19T07:02:06;99363.81;;;34.50;23.74
54850;BME280;47660;51.334;12.396;2023-11-19T07:04:31;99381.28;;;34.19;23.47
54850;BME280;47660;51.334;12.396;2023-11-19T07:06:58;99396.19;;;34.08;23.08
54850;BME280;47660;51.334;12.396;2023-11-19T07:09:23;99394.56;;;35.44;22.21
54850;BME280;47660;51.334;12.396;2023-11-19T07:11:49;99392.69;;;35.74;22.43
54850;BME280;47660;51.334;12.396;2023-11-19T07:14:17;99402.25;;;35.02;22.54
54850;BME280;47660;51.334;12.396;2023-11-19T07:16:42;99402.06;;;34.77;23.65
54850;BME280;47660;51.334;12.396;2023-11-19T07:19:08;99398.91;;;33.77;24.30
54850;BME280;47660;51.334;12.396;2023-11-19T07:21:33;99398.28;;;33.33;25.03
54850;BME280;47660;51.334;12.396;2023-11-19T07:23:59;99407.34;;;34.74;23.53
54850;BME280;47660;51.334;12.396;2023-11-19T07:26:24;99422.03;;;34.38;23.49
54850;BME280;47660;51.334;12.396;2023-11-19T07:28:50;99415.06;;;34.72;23.18
54850;BME280;47660;51.334;12.396;2023-11-19T07:31:15;99417.94;;;35.62;22.46
54850;BME280;47660;51.334;12.396;2023-11-19T07:33:41;99401.19;;;34.98;22.99
54850;BME280;47660;51.334;12.396;2023-11-19T07:36:10;99409.91;;;34.34;24.47
54850;BME280;47660;51.334;12.396;2023-11-19T07:38:35;99409.97;;;33.98;24.42
54850;BME280;47660;51.334;12.396;2023-11-19T07:41:01;99420.38;;;35.23;23.05
54850;BME280;47660;51.334;12.396;2023-11-19T07:43:26;99422.00;;;35.30;22.98
54850;BME280;47660;51.334;12.396;2023-11-19T07:45:52;99428.69;;;36.03;22.45
54850;BME280;47660;51.334;12.396;2023-11-19T07:48:17;99430.66;;;35.63;22.48
54850;BME280;47660;51.334;12.396;2023-11-19T07:50:48;99428.94;;;34.41;23.88
54850;BME280;47660;51.334;12.396;2023-11-19T07:53:13;99441.44;;;35.64;22.50
54850;BME280;47660;51.334;12.396;2023-11-19T07:55:38;99436.47;;;35.96;22.28
54850;BME280;47660;51.334;12.396;2023-11-19T07:58:03;99441.59;;;36.13;22.17
54850;BME280;47660;51.334;12.396;2023-11-19T08:00:29;99448.53;;;36.94;21.64
54850;BME280;47660;51.334;12.396;2023-11-19T08:02:54;99434.06;;;37.59;20.94
54850;BME280;47660;51.334;12.396;2023-11-19T08:05:19;99432.13;;;37.60;20.94
54850;BME280;47660;51.334;12.396;2023-11-19T08:07:45;99452.16;;;35.71;22.49
54850;BME280;47660;51.334;12.396;2023-11-19T08:10:10;99443.41;;;36.82;21.49
54850;BME280;47660;51.334;12.396;2023-11-19T08:12:36;99439.31;;;37.61;20.88
54850;BME280;47660;51.334;12.396;2023-11-19T08:15:02;99443.03;;;37.13;21.69
54850;BME280;47660;51.334;12.396;2023-11-19T08:17:29;99453.91;;;35.57;22.83
54850;BME280;47660;51.334;12.396;2023-11-19T08:19:55;99456.38;;;35.63;22.52
54850;BME280;47660;51.334;12.396;2023-11-19T08:22:20;99448.53;;;36.10;22.43
54850;BME280;47660;51.334;12.396;2023-11-19T08:24:46;99448.78;;;35.34;23.07
54850;BME280;47660;51.334;12.396;2023-11-19T08:27:11;99448.44;;;35.41;22.92
54850;BME280;47660;51.334;12.396;2023-11-19T08:29:36;99444.34;;;35.33;23.20
54850;BME280;47660;51.334;12.396;2023-11-19T08:32:02;99448.66;;;35.05;23.01
54850;BME280;47660;51.334;12.396;2023-11-19T08:34:28;99444.00;;;35.50;23.04
54850;BME280;47660;51.334;12.396;2023-11-19T08:36:53;99445.00;;;35.65;22.72
54850;BME280;47660;51.334;12.396;2023-11-19T08:39:19;99453.97;;;37.04;21.72
54850;BME280;47660;51.334;12.396;2023-11-19T08:41:46;99455.56;;;34.92;23.53
54850;BME280;47660;51.334;12.396;2023-11-19T08:44:12;99451.16;;;37.67;20.73
54850;BME280;47660;51.334;12.396;2023-11-19T08:46:37;99446.34;;;37.15;21.48
54850;BME280;47660;51.334;12.396;2023-11-19T08:49:03;99451.13;;;37.09;21.53
54850;BME280;47660;51.334;12.396;2023-11-19T08:51:28;99446.03;;;36.92;21.69
54850;BME280;47660;51.334;12.396;2023-11-19T08:53:53;99456.59;;;36.66;21.86
54850;BME280;47660;51.334;12.396;2023-11-19T08:56:18;99438.88;;;38.06;20.63
54850;BME280;47660;51.334;12.396;2023-11-19T08:58:44;99454.13;;;36.89;21.55
54850;BME280;47660;51.334;12.396;2023-11-19T09:01:09;99458.00;;;37.88;20.77
54850;BME280;47660;51.334;12.396;2023-11-19T09:03:34;99449.91;;;38.86;19.99
54850;BME280;47660;51.334;12.396;2023-11-19T09:06:00;99444.00;;;39.66;19.28
54850;BME280;47660;51.334;12.396;2023-11-19T09:08:25;99455.75;;;38.71;19.88
54850;BME280;47660;51.334;12.396;2023-11-19T09:10:50;99464.03;;;37.96;20.65
54850;BME280;47660;51.334;12.396;2023-11-19T09:13:16;99459.63;;;37.56;20.89
54850;BME280;47660;51.334;12.396;2023-11-19T09:15:41;99471.25;;;38.11;21.28
54850;BME280;47660;51.334;12.396;2023-11-19T09:18:07;99469.22;;;38.49;20.79
54850;BME280;47660;51.334;12.396;2023-11-19T09:20:32;99463.19;;;38.28;21.08
54850;BME280;47660;51.334;12.396;2023-11-19T09:23:03;99451.97;;;38.19;21.19
54850;BME280;47660;51.334;12.396;2023-11-19T09:25:28;99467.59;;;38.15;20.99
54850;BME280;47660;51.334;12.396;2023-11-19T09:27:54;99472.34;;;37.96;21.27
54850;BME280;47660;51.334;12.396;2023-11-19T09:30:19;99462.09;;;37.77;21.15
54850;BME280;47660;51.334;12.396;2023-11-19T09:32:45;99469.09;;;37.88;21.11
54850;BME280;47660;51.334;12.396;2023-11-19T09:35:10;99475.03;;;37.43;21.45
54850;BME280;47660;51.334;12.396;2023-11-19T09:37:38;99474.09;;;37.10;21.87
54850;BME280;47660;51.334;12.396;2023-11-19T09:40:04;99467.97;;;37.89;21.23
54850;BME280;47660;51.334;12.396;2023-11-19T09:42:32;99462.56;;;39.06;21.04
54850;BME280;47660;51.334;12.396;2023-11-19T09:45:07;99460.41;;;38.89;21.08
54850;BME280;47660;51.334;12.396;2023-11-19T09:47:37;99462.47;;;37.51;21.52
54850;BME280;47660;51.334;12.396;2023-11-19T09:50:03;99464.44;;;37.51;21.63
54850;BME280;47660;51.334;12.396;2023-11-19T09:52:30;99471.97;;;37.45;21.67
54850;BME280;47660;51.334;12.396;2023-11-19T09:54:55;99459.84;;;37.98;21.30
54850;BME280;47660;51.334;12.396;2023-11-19T09:57:22;99457.81;;;38.18;21.31
54850;BME280;47660;51.334;12.396;2023-11-19T09:59:47;99453.28;;;38.08;21.22
54850;BME280;47660;51.334;12.396;2023-11-19T10:02:14;99446.63;;;39.49;20.89
54850;BME280;47660;51.334;12.396;2023-11-19T10:04:41;99450.53;;;39.85;20.38
54850;BME280;47660;51.334;12.396;2023-11-19T10:07:08;99452.44;;;38.83;20.87
54850;BME280;47660;51.334;12.396;2023-11-19T10:09:36;99445.19;;;40.51;20.07
54850;BME280;47660;51.334;12.396;2023-11-19T10:12:01;99444.03;;;38.60;20.95
54850;BME280;47660;51.334;12.396;2023-11-19T10:14:28;99444.53;;;39.18;20.94
54850;BME280;47660;51.334;12.396;2023-11-19T10:16:54;99448.25;;;38.71;21.37
54850;BME280;47660;51.334;12.396;2023-11-19T10:19:20;99449.13;;;37.53;21.55
54850;BME280;47660;51.334;12.396;2023-11-19T10:21:46;99445.63;;;37.67;21.66
54850;BME280;47660;51.334;12.396;2023-11-19T10:24:11;99454.16;;;36.00;23.18
54850;BME280;47660;51.334;12.396;2023-11-19T10:26:36;99447.41;;;35.77;23.73
54850;BME280;47660;51.334;12.396;2023-11-19T10:29:02;99435.66;;;35.95;23.49
54850;BME280;47660;51.334;12.396;2023-11-19T10:31:27;99436.47;;;35.11;24.30
54850;BME280;47660;51.334;12.396;2023-11-19T10:33:53;99433.38;;;33.85;25.95
54850;BME280;47660;51.334;12.396;2023-11-19T10:36:19;99415.81;;;34.98;24.59
54850;BME280;47660;51.334;12.396;2023-11-19T10:38:55;99406.81;;;38.47;21.85
54850;BME280;47660;51.334;12.396;2023-11-19T10:41:31;99417.78;;;36.41;23.68
54850;BME280;47660;51.334;12.396;2023-11-19T10:43:57;99412.91;;;35.69;24.11
54850;BME280;47660;51.334;12.396;2023-11-19T10:46:22;99415.72;;;34.32;24.51
54850;BME280;47660;51.334;12.396;2023-11-19T10:48:49;99407.97;;;35.21;24.45
54850;BME280;47660;51.334;12.396;2023-11-19T10:51:19;99405.50;;;37.01;23.27
54850;BME280;47660;51.334;12.396;2023-11-19T10:53:49;99399.59;;;38.88;21.00
54850;BME280;47660;51.334;12.396;2023-11-19T10:56:16;99389.09;;;38.99;21.17
54850;BME280;47660;51.334;12.396;2023-11-19T10:58:44;99394.00;;;40.70;19.83
54850;BME280;47660;51.334;12.396;2023-11-19T11:01:16;99375.47;;;44.52;16.90
54850;BME280;47660;51.334;12.396;2023-11-19T11:03:44;99378.03;;;43.53;17.33
54850;BME280;47660;51.334;12.396;2023-11-19T11:06:12;99367.78;;;45.43;16.21
54850;BME280;47660;51.334;12.396;2023-11-19T11:08:39;99373.78;;;43.68;17.21
54850;BME280;47660;51.334;12.396;2023-11-19T11:11:05;99370.78;;;46.59;15.75
54850;BME280;47660;51.334;12.396;2023-11-19T11:13:33;99376.78;;;46.57;15.26
54850;BME280;47660;51.334;12.396;2023-11-19T11:15:59;99391.06;;;42.76;17.21
54850;BME280;47660;51.334;12.396;2023-11-19T11:18:25;99392.97;;;45.55;15.54
54850;BME280;47660;51.334;12.396;2023-11-19T11:20:54;99383.59;;;48.14;13.99
54850;BME280;47660;51.334;12.396;2023-11-19T11:29:10;99383.56;;;45.92;14.72
54850;BME280;47660;51.334;12.396;2023-11-19T11:31:48;99385.19;;;47.29;13.84
54850;BME280;47660;51.334;12.396;2023-11-19T11:39:39;99386.00;;;46.58;14.21
54850;BME280;47660;51.334;12.396;2023-11-19T11:45:10;99393.63;;;48.92;12.71
54850;BME280;47660;51.334;12.396;2023-11-19T11:50:08;99389.53;;;48.59;13.13
54850;BME280;47660;51.334;12.396;2023-11-19T11:52:33;99383.66;;;45.96;13.93
54850;BME280;47660;51.334;12.396;2023-11-19T11:55:05;99384.78;;;46.23;14.18
54850;BME280;47660;51.334;12.396;2023-11-19T11:57:36;99394.81;;;44.57;15.72
54850;BME280;47660;51.334;12.396;2023-11-19T12:00:02;99390.81;;;44.08;15.79
54850;BME280;47660;51.334;12.396;2023-11-19T12:02:30;99386.00;;;42.99;16.83
54850;BME280;47660;51.334;12.396;2023-11-19T12:04:56;99373.69;;;44.72;15.36
54850;BME280;47660;51.334;12.396;2023-11-19T12:07:23;99369.09;;;47.10;14.49
54850;BME280;47660;51.334;12.396;2023-11-19T12:09:52;99366.97;;;48.59;13.55
54850;BME280;47660;51.334;12.396;2023-11-19T12:12:26;99359.22;;;50.30;12.73
54850;BME280;47660;51.334;12.396;2023-11-19T12:15:07;99367.78;;;49.89;12.78
54850;BME280;47660;51.334;12.396;2023-11-19T12:17:38;99368.16;;;48.85;12.53
54850;BME280;47660;51.334;12.396;2023-11-19T12:20:06;99372.78;;;48.19;12.95
54850;BME280;47660;51.334;12.396;2023-11-19T12:22:37;99365.41;;;47.88;12.94
54850;BME280;47660;51.334;12.396;2023-11-19T12:25:05;99356.97;;;47.25;13.09
54850;BME280;47660;51.334;12.396;2023-11-19T12:27:30;99357.03;;;47.09;12.84
54850;BME280;47660;51.334;12.396;2023-11-19T12:29:55;99361.31;;;46.48;13.29
54850;BME280;47660;51.334;12.396;2023-11-19T12:32:22;99356.09;;;45.86;13.55
54850;BME280;47660;51.334;12.396;2023-11-19T12:34:47;99347.19;;;46.64;13.15
54850;BME280;47660;51.334;12.396;2023-11-19T12:37:13;99354.19;;;46.90;12.90
54850;BME280;47660;51.334;12.396;2023-11-19T12:39:38;99359.88;;;45.33;13.97
54850;BME280;47660;51.334;12.396;2023-11-19T12:42:05;99356.81;;;42.28;15.69
54850;BME280;47660;51.334;12.396;2023-11-19T12:44:31;99358.22;;;42.13;15.58
54850;BME280;47660;51.334;12.396;2023-11-19T12:47:03;99369.78;;;42.93;15.79
54850;BME280;47660;51.334;12.396;2023-11-19T12:49:29;99366.41;;;39.65;17.51
54850;BME280;47660;51.334;12.396;2023-11-19T12:51:54;99368.66;;;40.49;16.89
54850;BME280;47660;51.334;12.396;2023-11-19T12:54:19;99378.38;;;40.60;16.82
54850;BME280;47660;51.334;12.396;2023-11-19T12:56:52;99364.09;;;41.55;16.44
54850;BME280;47660;51.334;12.396;2023-11-19T12:59:18;99366.06;;;39.80;16.92
54850;BME280;47660;51.334;12.396;2023-11-19T13:01:59;99367.75;;;43.23;15.14